Time;durP1;ratioP1;P1;durP2;ratioP2;P2;SDS_P1;SDS_P2;PMS_P1;PMS_P2;Temp;Humidity;BMP_temperature;BMP_pressure;BME280_temperature;BME280_humidity;BME280_pressure;Samples;Min_cycle;Max_cycle;Signal;HPM_P1;HPM_P2
2022/07/02 00:01:51;;;;;;;1999.90;999.90;;;11.50;99.90;;;;;;5094656;28;20065;-90
2022/07/02 00:04:25;;;;;;;1999.90;999.90;;;11.50;99.90;;;;;;5091055;28;20040;-89
2022/07/02 00:06:51;;;;;;;1999.90;999.90;;;11.50;99.90;;;;;;5073811;28;20530;-92
2022/07/02 00:09:18;;;;;;;1999.90;999.90;;;11.50;99.90;;;;;;5058117;28;20127;-89
2022/07/02 00:11:48;;;;;;;1999.90;999.90;;;11.50;99.90;;;;;;5095103;28;20494;-89
2022/07/02 00:14:15;;;;;;;1999.90;999.90;;;11.60;99.90;;;;;;5043318;28;20635;-90
2022/07/02 00:16:45;;;;;;;1999.90;999.90;;;11.60;99.90;;;;;;5049408;28;20040;-90
2022/07/02 00:19:13;;;;;;;1999.90;999.90;;;11.60;99.90;;;;;;5076257;28;20107;-89
2022/07/02 00:21:39;;;;;;;1999.90;999.90;;;11.70;99.90;;;;;;5103837;28;20335;-90
2022/07/02 00:24:09;;;;;;;1999.90;999.90;;;11.70;99.90;;;;;;5069371;28;20111;-90
2022/07/02 00:26:40;;;;;;;1999.90;999.90;;;11.60;99.90;;;;;;5083696;28;20028;-90
2022/07/02 00:29:19;;;;;;;1999.90;999.90;;;11.70;99.90;;;;;;5078240;28;20062;-90
2022/07/02 00:31:47;;;;;;;1999.90;999.90;;;11.70;99.90;;;;;;5079625;28;20046;-90
2022/07/02 00:34:13;;;;;;;1999.90;999.90;;;11.50;99.90;;;;;;5077541;28;20087;-90
2022/07/02 00:36:39;;;;;;;1999.90;999.90;;;11.60;99.90;;;;;;5059991;28;20040;-90
2022/07/02 00:39:05;;;;;;;1999.90;999.90;;;11.50;99.90;;;;;;5077851;28;20031;-90
2022/07/02 00:41:32;;;;;;;1999.90;999.90;;;11.50;99.90;;;;;;5093338;28;20028;-90
2022/07/02 00:43:57;;;;;;;1999.90;999.90;;;11.50;99.90;;;;;;5072167;28;20378;-90
2022/07/02 00:46:24;;;;;;;1999.90;999.90;;;11.40;99.90;;;;;;5066016;28;20522;-90
2022/07/02 00:48:51;;;;;;;1999.90;999.90;;;11.40;99.90;;;;;;5082921;28;20493;-92
2022/07/02 00:51:16;;;;;;;1999.90;999.90;;;11.50;99.90;;;;;;5080521;28;20032;-91
2022/07/02 00:53:42;;;;;;;1999.90;999.90;;;11.50;99.90;;;;;;5084012;28;20690;-91
2022/07/02 00:56:08;;;;;;;1999.90;999.90;;;11.50;99.90;;;;;;5050483;28;20538;-91
2022/07/02 00:58:33;;;;;;;1999.90;999.90;;;11.50;99.90;;;;;;5081707;28;20089;-90
2022/07/02 01:01:00;;;;;;;1999.90;999.90;;;11.40;99.90;;;;;;5039806;28;20031;-91
2022/07/02 01:03:28;;;;;;;1999.90;999.90;;;11.50;99.90;;;;;;5078009;28;20547;-91
2022/07/02 01:05:57;;;;;;;1999.90;999.90;;;11.50;99.90;;;;;;5088896;28;20039;-91
2022/07/02 01:11:11;;;;;;;1999.90;999.90;;;11.60;99.90;;;;;;5089474;28;20098;-91
2022/07/02 01:13:39;;;;;;;1999.90;999.90;;;11.50;99.90;;;;;;5062216;28;20059;-91
2022/07/02 01:16:04;;;;;;;1999.90;999.90;;;11.50;99.90;;;;;;5064368;28;20186;-90
2022/07/02 01:18:30;;;;;;;1999.90;999.90;;;11.40;99.90;;;;;;5066356;28;20539;-91
2022/07/02 01:20:56;;;;;;;1999.90;999.90;;;11.50;99.90;;;;;;5073474;28;20024;-92
2022/07/02 01:23:21;;;;;;;1999.90;999.90;;;11.50;99.90;;;;;;5077299;28;20024;-89
2022/07/02 01:25:51;;;;;;;1999.90;999.90;;;11.60;99.90;;;;;;5071804;28;20502;-91
2022/07/02 01:28:18;;;;;;;1999.90;999.90;;;11.60;99.90;;;;;;5077891;28;20028;-90
2022/07/02 01:30:44;;;;;;;1999.90;999.90;;;11.60;99.90;;;;;;5059101;28;20047;-90
2022/07/02 01:33:10;;;;;;;1999.90;999.90;;;11.60;99.90;;;;;;5048007;28;20039;-91
2022/07/02 01:35:35;;;;;;;1999.90;999.90;;;11.50;99.90;;;;;;5074195;28;20099;-91
2022/07/02 01:38:01;;;;;;;1999.90;999.90;;;11.50;99.90;;;;;;5069236;28;20029;-91
2022/07/02 01:40:27;;;;;;;1999.90;999.90;;;11.60;99.90;;;;;;5067590;28;20486;-90
2022/07/02 01:42:52;;;;;;;1999.90;999.90;;;11.60;99.90;;;;;;5067824;28;20476;-91
2022/07/02 01:45:18;;;;;;;1999.90;999.90;;;11.60;99.90;;;;;;5057052;28;20036;-91
2022/07/02 01:47:44;;;;;;;1999.90;999.90;;;11.80;99.90;;;;;;5071537;28;20044;-90
2022/07/02 01:50:10;;;;;;;1999.90;999.90;;;11.80;99.90;;;;;;5062286;28;20043;-90
2022/07/02 01:52:35;;;;;;;1999.90;999.90;;;11.70;99.90;;;;;;5076304;28;20097;-91
2022/07/02 01:55:01;;;;;;;1999.90;999.90;;;11.80;99.90;;;;;;5059646;28;20479;-91
2022/07/02 01:57:30;;;;;;;1999.90;999.90;;;11.70;99.90;;;;;;5073985;28;20048;-91
2022/07/02 01:59:56;;;;;;;1999.90;999.90;;;11.70;99.90;;;;;;5046432;28;20024;-90
2022/07/02 02:02:22;;;;;;;1999.90;999.90;;;11.70;99.90;;;;;;5075860;28;20115;-91
2022/07/02 02:04:48;;;;;;;1999.90;999.90;;;11.70;99.90;;;;;;5075573;28;20034;-90
2022/07/02 02:07:14;;;;;;;1999.90;999.90;;;11.70;99.90;;;;;;5070452;28;20036;-91
2022/07/02 02:09:39;;;;;;;1999.90;999.90;;;11.50;99.90;;;;;;5071493;28;20115;-90
2022/07/02 02:12:06;;;;;;;1999.90;999.90;;;11.50;99.90;;;;;;5070980;28;20488;-91
2022/07/02 02:14:32;;;;;;;1999.90;999.90;;;11.60;99.90;;;;;;5074681;28;20081;-90
2022/07/02 02:16:58;;;;;;;1999.90;999.90;;;11.60;99.90;;;;;;5082353;28;20761;-90
2022/07/02 02:19:24;;;;;;;1999.90;999.90;;;11.50;99.90;;;;;;5082629;28;20024;-90
2022/07/02 02:21:49;;;;;;;1999.90;999.90;;;11.70;99.90;;;;;;5084258;28;20075;-90
2022/07/02 02:24:16;;;;;;;1999.90;999.90;;;11.70;99.90;;;;;;5084189;28;20036;-90
2022/07/02 02:26:41;;;;;;;1999.90;999.90;;;11.80;99.90;;;;;;5062563;28;20511;-90
2022/07/02 02:29:08;;;;;;;1999.90;999.90;;;11.70;99.90;;;;;;5074647;28;20043;-91
2022/07/02 02:31:33;;;;;;;1999.90;999.90;;;11.70;99.90;;;;;;5077888;28;20033;-93
2022/07/02 02:33:59;;;;;;;1999.90;999.90;;;11.70;99.90;;;;;;5078049;28;20032;-90
2022/07/02 02:36:25;;;;;;;1999.90;999.90;;;11.70;99.90;;;;;;5056739;28;20082;-89
2022/07/02 02:38:50;;;;;;;1999.90;999.90;;;11.70;99.90;;;;;;5074491;28;20404;-90
2022/07/02 02:41:16;;;;;;;1999.90;999.90;;;11.60;99.90;;;;;;5074087;28;20671;-90
2022/07/02 02:43:42;;;;;;;1999.90;999.90;;;11.50;99.90;;;;;;5079220;28;20060;-95
2022/07/02 02:46:08;;;;;;;1999.90;999.90;;;11.60;99.90;;;;;;5074290;28;20043;-90
2022/07/02 02:48:35;;;;;;;1999.90;999.90;;;11.50;99.90;;;;;;5066098;28;20492;-90
2022/07/02 02:51:01;;;;;;;1999.90;999.90;;;11.20;99.90;;;;;;5071860;28;20024;-90
2022/07/02 02:53:27;;;;;;;1999.90;999.90;;;11.40;99.90;;;;;;5081910;28;20110;-90
2022/07/02 02:55:52;;;;;;;1999.90;999.90;;;11.10;99.90;;;;;;5077910;28;20043;-91
2022/07/02 02:58:18;;;;;;;1999.90;999.90;;;11.20;99.90;;;;;;5063502;28;20476;-90
2022/07/02 03:00:44;;;;;;;1999.90;999.90;;;11.20;99.90;;;;;;5078580;28;20559;-91
2022/07/02 03:03:11;;;;;;;1999.90;999.90;;;11.10;99.90;;;;;;5076673;28;20061;-91
2022/07/02 03:05:36;;;;;;;1999.90;999.90;;;11.10;99.90;;;;;;5067145;28;20120;-91
2022/07/02 03:08:02;;;;;;;1999.90;999.90;;;11.10;99.90;;;;;;5057221;28;20119;-90
2022/07/02 03:10:28;;;;;;;1999.90;999.90;;;11.30;99.90;;;;;;5074006;28;20024;-91
2022/07/02 03:12:53;;;;;;;1999.90;999.90;;;11.30;99.90;;;;;;5056275;28;20036;-90
2022/07/02 03:15:19;;;;;;;1999.90;999.90;;;11.30;99.90;;;;;;5061391;28;20036;-89
2022/07/02 03:17:44;;;;;;;1999.90;999.90;;;11.20;99.90;;;;;;5079930;28;20570;-90
2022/07/02 03:20:11;;;;;;;1999.90;999.90;;;11.30;99.90;;;;;;5069708;28;20036;-89
2022/07/02 03:22:36;;;;;;;1999.90;999.90;;;11.20;99.90;;;;;;5079696;28;20115;-89
2022/07/02 03:25:02;;;;;;;1999.90;999.90;;;11.30;99.90;;;;;;5076599;28;20046;-89
2022/07/02 03:27:30;;;;;;;1999.90;999.90;;;11.30;99.90;;;;;;5060420;28;20032;-89
2022/07/02 03:29:56;;;;;;;1999.90;999.90;;;11.40;99.90;;;;;;5071525;28;20028;-89
2022/07/02 03:32:25;;;;;;;1999.90;999.90;;;11.30;99.90;;;;;;5068914;28;20040;-89
2022/07/02 03:34:54;;;;;;;1999.90;999.90;;;11.20;99.90;;;;;;5073676;28;20547;-90
2022/07/02 03:37:23;;;;;;;1999.90;999.90;;;11.20;99.90;;;;;;5075202;28;20483;-89
2022/07/02 03:39:48;;;;;;;1999.90;999.90;;;11.20;99.90;;;;;;5070149;28;20016;-89
2022/07/02 03:42:14;;;;;;;1641.97;793.03;;;11.20;99.90;;;;;;5055458;28;20557;-91
2022/07/02 03:44:40;;;;;;;1999.90;999.90;;;11.10;99.90;;;;;;5052212;28;20540;-89
2022/07/02 03:47:06;;;;;;;1999.90;999.90;;;11.10;99.90;;;;;;5056233;28;20032;-89
2022/07/02 03:49:31;;;;;;;1999.90;999.90;;;11.00;99.90;;;;;;5083514;28;20078;-90
2022/07/02 03:51:57;;;;;;;1999.90;999.90;;;11.00;99.90;;;;;;5080983;28;20565;-90
2022/07/02 03:54:23;;;;;;;1999.90;999.90;;;11.00;99.90;;;;;;5062719;28;20041;-88
2022/07/02 03:56:48;;;;;;;1999.90;999.90;;;10.90;99.90;;;;;;5076557;28;20522;-89
2022/07/02 03:59:14;;;;;;;1999.90;999.90;;;10.90;99.90;;;;;;5074697;28;20055;-89
2022/07/02 04:01:40;;;;;;;1999.90;999.90;;;10.90;99.90;;;;;;5060077;28;20039;-90
2022/07/02 04:04:06;;;;;;;1999.90;999.90;;;11.10;99.90;;;;;;5059817;28;20476;-90
2022/07/02 04:06:31;;;;;;;1999.90;999.90;;;11.00;99.90;;;;;;5070929;28;20033;-90
2022/07/02 04:08:57;;;;;;;1999.90;999.90;;;11.00;99.90;;;;;;5070692;28;20076;-90
2022/07/02 04:11:22;;;;;;;1999.90;999.90;;;11.10;99.90;;;;;;5048968;28;20024;-90
2022/07/02 04:13:48;;;;;;;1999.90;999.90;;;11.10;99.90;;;;;;5071683;28;20484;-90
2022/07/02 04:16:13;;;;;;;1999.90;999.90;;;11.00;99.90;;;;;;5080830;28;20375;-90
2022/07/02 04:18:39;;;;;;;1999.90;999.90;;;10.90;99.90;;;;;;5079350;28;20023;-89
2022/07/02 04:21:05;;;;;;;1999.90;999.90;;;10.80;99.90;;;;;;5080723;28;20636;-90
2022/07/02 04:23:30;;;;;;;1999.90;999.90;;;10.80;99.90;;;;;;5060478;28;20081;-89
2022/07/02 04:25:56;;;;;;;1999.90;999.90;;;10.70;99.90;;;;;;5101567;28;20490;-90
2022/07/02 04:28:23;;;;;;;1999.90;999.90;;;10.90;99.90;;;;;;5061781;28;20483;-89
2022/07/02 04:30:49;;;;;;;1999.90;999.90;;;10.90;99.90;;;;;;5077770;28;20039;-89
2022/07/02 04:33:15;;;;;;;1999.90;999.90;;;10.90;99.90;;;;;;5096926;28;20032;-88
2022/07/02 04:35:40;;;;;;;1999.90;999.90;;;10.90;99.90;;;;;;5074052;28;20482;-88
2022/07/02 04:38:06;;;;;;;1999.90;999.90;;;10.90;99.90;;;;;;5059452;28;20109;-89
2022/07/02 04:40:31;;;;;;;1999.90;999.90;;;10.80;99.90;;;;;;5098473;28;20035;-89
2022/07/02 04:42:57;;;;;;;1999.90;999.90;;;11.00;99.90;;;;;;5071292;28;20495;-90
2022/07/02 04:45:23;;;;;;;1999.90;999.90;;;11.00;99.90;;;;;;5041671;28;20031;-89
2022/07/02 04:47:48;;;;;;;1999.90;999.90;;;11.10;99.90;;;;;;5066828;28;20092;-91
2022/07/02 04:50:14;;;;;;;1999.90;868.38;;;10.90;99.90;;;;;;5106031;28;20059;-91
2022/07/02 04:52:40;;;;;;;1999.90;999.90;;;11.00;99.90;;;;;;5104191;28;20506;-88
2022/07/02 04:55:05;;;;;;;1999.90;999.90;;;11.10;99.90;;;;;;5081186;28;20501;-90
2022/07/02 04:57:31;;;;;;;1999.90;999.90;;;11.20;99.90;;;;;;5076366;28;20043;-90
2022/07/02 04:59:57;;;;;;;1999.90;999.90;;;11.40;99.90;;;;;;5057208;28;20457;-90
2022/07/02 05:02:23;;;;;;;1999.90;999.90;;;11.50;99.90;;;;;;5093051;28;20591;-90
2022/07/02 05:04:49;;;;;;;1999.90;999.90;;;11.70;99.90;;;;;;5077687;28;20051;-89
2022/07/02 05:07:14;;;;;;;1999.90;999.90;;;11.60;99.90;;;;;;5073942;28;20105;-91
2022/07/02 05:09:40;;;;;;;1999.90;999.90;;;11.70;99.90;;;;;;5077400;28;20030;-91
2022/07/02 05:12:06;;;;;;;1999.90;999.90;;;11.90;99.90;;;;;;5086176;28;20427;-90
2022/07/02 05:14:32;;;;;;;1999.90;999.90;;;12.00;99.90;;;;;;5060377;28;20038;-90
2022/07/02 05:16:58;;;;;;;1999.90;999.90;;;12.10;99.90;;;;;;5082196;28;20039;-90
2022/07/02 05:19:23;;;;;;;1999.90;999.90;;;12.00;99.90;;;;;;5082159;28;20057;-91
2022/07/02 05:21:49;;;;;;;1999.90;999.90;;;12.00;99.90;;;;;;5063108;28;20043;-90
2022/07/02 05:24:15;;;;;;;1999.90;999.90;;;12.00;99.90;;;;;;5073215;28;20035;-90
2022/07/02 05:26:41;;;;;;;1999.90;988.80;;;11.90;99.90;;;;;;5082343;28;20089;-90
2022/07/02 05:29:06;;;;;;;1999.90;999.90;;;12.10;99.90;;;;;;5080377;28;20028;-90
2022/07/02 05:31:32;;;;;;;1982.15;909.65;;;12.20;99.90;;;;;;5076041;28;20032;-92
2022/07/02 05:33:58;;;;;;;1999.90;999.90;;;12.10;99.90;;;;;;5077840;28;20407;-89
2022/07/02 05:36:23;;;;;;;1999.90;999.90;;;12.20;99.90;;;;;;5070582;28;20031;-89
2022/07/02 05:38:49;;;;;;;1999.90;999.90;;;12.20;99.90;;;;;;5074728;28;20044;-89
2022/07/02 05:41:15;;;;;;;1999.90;999.90;;;12.50;99.90;;;;;;5074583;28;20024;-89
2022/07/02 05:43:40;;;;;;;1999.90;999.90;;;12.60;99.90;;;;;;5080130;28;20024;-90
2022/07/02 05:46:06;;;;;;;1999.90;999.90;;;12.90;99.90;;;;;;5074586;28;20032;-89
2022/07/02 05:48:31;;;;;;;1999.90;999.90;;;12.80;99.90;;;;;;5081331;28;20100;-89
2022/07/02 05:50:57;;;;;;;1999.90;999.90;;;12.90;99.90;;;;;;5104508;28;20046;-90
2022/07/02 05:53:23;;;;;;;1999.90;999.90;;;12.80;99.90;;;;;;5048393;28;20058;-90
2022/07/02 05:55:48;;;;;;;1999.90;999.90;;;12.90;99.90;;;;;;5064623;28;20040;-91
2022/07/02 05:58:14;;;;;;;1999.90;999.90;;;12.90;99.90;;;;;;5063304;28;20039;-89
2022/07/02 06:00:40;;;;;;;1999.90;999.90;;;12.80;99.90;;;;;;5068828;28;20048;-90
2022/07/02 06:03:06;;;;;;;1999.90;999.90;;;13.20;99.90;;;;;;5080105;28;20030;-90
2022/07/02 06:08:16;;;;;;;1999.90;999.90;;;13.30;99.90;;;;;;5086701;28;20050;-89
2022/07/02 06:10:42;;;;;;;1999.90;999.90;;;13.60;99.90;;;;;;5093742;28;20390;-90
2022/07/02 06:13:07;;;;;;;1999.90;999.90;;;13.70;99.90;;;;;;5070418;28;20051;-90
2022/07/02 06:15:33;;;;;;;1999.90;978.05;;;13.80;99.90;;;;;;5077140;28;20027;-89
2022/07/02 06:18:02;;;;;;;1999.90;960.53;;;13.70;99.90;;;;;;5065358;28;20035;-92
2022/07/02 06:20:28;;;;;;;1999.90;999.90;;;13.60;99.90;;;;;;5080498;28;20062;-89
2022/07/02 06:22:54;;;;;;;1999.90;999.90;;;13.70;99.90;;;;;;5094259;28;20486;-89
2022/07/02 06:25:20;;;;;;;1999.90;999.90;;;13.60;99.90;;;;;;5087769;28;20049;-90
2022/07/02 06:27:46;;;;;;;1999.90;999.90;;;13.80;99.90;;;;;;5100307;28;20035;-90
2022/07/02 06:30:12;;;;;;;1999.90;999.90;;;13.60;99.90;;;;;;5067581;28;20391;-90
2022/07/02 06:32:37;;;;;;;1941.47;999.90;;;13.90;99.90;;;;;;5064179;28;20098;-89
2022/07/02 06:35:03;;;;;;;1999.90;999.90;;;14.00;99.90;;;;;;5077502;28;20036;-90
2022/07/02 06:37:29;;;;;;;1999.90;999.90;;;13.70;99.90;;;;;;5097526;28;20550;-88
2022/07/02 06:39:55;;;;;;;1999.90;999.90;;;13.90;99.90;;;;;;5073784;28;20107;-89
2022/07/02 06:42:26;;;;;;;1999.90;999.90;;;14.00;99.90;;;;;;5083651;28;20059;-88
2022/07/02 06:44:53;;;;;;;;;;;14.00;99.90;;;;;;5056547;28;20099;-88
2022/07/02 06:47:20;;;;;;;1999.90;999.90;;;14.20;99.90;;;;;;5104935;28;19911;-89
2022/07/02 06:49:46;;;;;;;1999.90;999.90;;;14.40;99.90;;;;;;5107462;28;20134;-84
2022/07/02 06:52:12;;;;;;;1999.90;999.90;;;14.50;99.90;;;;;;5077689;28;20024;-88
2022/07/02 06:54:38;;;;;;;1999.90;999.90;;;14.80;99.90;;;;;;5102390;28;20027;-87
2022/07/02 06:57:05;;;;;;;1999.90;999.90;;;14.80;99.90;;;;;;5082365;28;20027;-86
2022/07/02 06:59:31;;;;;;;1999.90;999.90;;;14.50;99.90;;;;;;5100482;28;20051;-86
2022/07/02 07:01:57;;;;;;;1999.90;999.90;;;14.40;99.90;;;;;;5097235;28;20020;-84
2022/07/02 07:04:23;;;;;;;1999.90;999.90;;;14.30;99.90;;;;;;5096894;28;20070;-85
2022/07/02 07:06:52;;;;;;;1930.25;999.90;;;14.30;99.90;;;;;;5086169;28;20738;-85
2022/07/02 07:09:18;;;;;;;1999.90;999.90;;;14.20;99.90;;;;;;5079316;28;20040;-84
2022/07/02 07:11:44;;;;;;;1999.90;999.90;;;14.30;99.90;;;;;;5095766;28;20036;-85
2022/07/02 07:14:10;;;;;;;1999.90;999.90;;;14.50;99.90;;;;;;5092772;28;20094;-85
2022/07/02 07:16:36;;;;;;;1999.90;999.90;;;14.70;99.90;;;;;;5087739;28;20542;-85
2022/07/02 07:19:03;;;;;;;1924.38;891.53;;;14.70;99.90;;;;;;5100033;28;20026;-85
2022/07/02 07:21:28;;;;;;;1999.90;999.90;;;14.90;99.90;;;;;;5082602;28;20028;-85
2022/07/02 07:23:54;;;;;;;1999.90;999.90;;;14.90;99.90;;;;;;5084047;28;20028;-85
2022/07/02 07:26:20;;;;;;;1999.90;999.90;;;15.00;99.90;;;;;;5097721;28;20039;-85
2022/07/02 07:28:45;;;;;;;1999.90;999.90;;;15.40;99.90;;;;;;5074060;28;20024;-83
2022/07/02 07:31:11;;;;;;;1999.90;999.90;;;15.60;99.90;;;;;;5075321;28;20028;-85
2022/07/02 07:33:37;;;;;;;1999.90;999.90;;;15.80;99.90;;;;;;5074197;28;20085;-85
2022/07/02 07:36:03;;;;;;;1999.90;999.90;;;15.80;99.90;;;;;;5054072;28;20028;-84
2022/07/02 07:38:29;;;;;;;1999.90;924.17;;;15.90;99.90;;;;;;5089348;28;20047;-85
2022/07/02 07:40:55;;;;;;;1999.90;999.90;;;16.00;99.90;;;;;;5068282;28;20188;-86
2022/07/02 07:43:21;;;;;;;1999.90;999.90;;;15.90;99.90;;;;;;5091550;28;20074;-87
2022/07/02 07:45:46;;;;;;;1999.90;999.90;;;15.80;99.90;;;;;;5097462;28;20027;-86
2022/07/02 07:48:13;;;;;;;1999.90;999.90;;;16.00;99.90;;;;;;5077970;28;20028;-87
2022/07/02 07:50:39;;;;;;;1999.90;999.90;;;16.50;99.90;;;;;;5076130;28;20021;-81
2022/07/02 07:53:04;;;;;;;1999.90;954.97;;;16.60;99.90;;;;;;5068002;28;20261;-80
2022/07/02 07:55:30;;;;;;;1999.90;999.90;;;16.80;99.90;;;;;;5095993;28;20027;-81
2022/07/02 07:57:56;;;;;;;1999.90;999.90;;;16.70;99.90;;;;;;5087264;28;20030;-80
2022/07/02 08:00:21;;;;;;;1999.90;999.90;;;16.90;99.90;;;;;;5094894;28;20019;-80
2022/07/02 08:02:47;;;;;;;1999.90;985.28;;;17.00;99.90;;;;;;5089710;28;20465;-81
2022/07/02 08:05:12;;;;;;;1999.90;999.90;;;17.30;99.90;;;;;;5053346;28;20028;-81
2022/07/02 08:07:40;;;;;;;1999.90;999.90;;;17.30;99.90;;;;;;5071716;28;20443;-82
2022/07/02 08:10:07;;;;;;;1999.90;999.90;;;17.10;99.90;;;;;;5084603;28;20221;-81
2022/07/02 08:12:33;;;;;;;1999.90;849.58;;;17.30;99.90;;;;;;5084733;28;20066;-83
2022/07/02 08:14:59;;;;;;;1999.90;999.90;;;17.30;99.90;;;;;;5086885;28;20384;-82
2022/07/02 08:17:26;;;;;;;1999.90;999.90;;;17.50;99.90;;;;;;5073488;28;20055;-81
2022/07/02 08:19:52;;;;;;;1999.90;976.42;;;17.50;99.90;;;;;;5086347;28;20032;-81
2022/07/02 08:22:19;;;;;;;1999.90;999.90;;;17.70;99.90;;;;;;5073790;28;20451;-75
2022/07/02 08:24:45;;;;;;;1999.90;977.70;;;17.70;99.90;;;;;;5088228;28;20023;-83
2022/07/02 08:27:10;;;;;;;1999.90;999.90;;;17.60;99.90;;;;;;5088888;28;20764;-80
2022/07/02 08:29:36;;;;;;;1999.90;999.90;;;17.80;99.90;;;;;;5084961;28;20081;-79
2022/07/02 08:32:03;;;;;;;1999.90;999.90;;;18.00;98.60;;;;;;5050884;28;20509;-78
2022/07/02 08:34:30;;;;;;;1999.90;999.90;;;18.00;98.50;;;;;;5073341;28;20448;-78
2022/07/02 08:36:56;;;;;;;1999.90;999.90;;;17.90;99.90;;;;;;5088786;28;20028;-87
2022/07/02 08:39:22;;;;;;;1999.90;999.90;;;18.30;99.90;;;;;;5093364;28;20082;-79
2022/07/02 08:41:48;;;;;;;1999.90;999.90;;;18.40;99.90;;;;;;5069006;28;20547;-78
2022/07/02 08:44:16;;;;;;;1999.90;999.90;;;18.50;93.60;;;;;;5083372;28;20033;-79
2022/07/02 08:46:43;;;;;;;1999.15;999.90;;;18.40;93.60;;;;;;5074208;28;20027;-81
2022/07/02 08:49:10;;;;;;;1954.85;999.90;;;18.50;93.80;;;;;;5090625;28;20021;-80
2022/07/02 08:51:36;;;;;;;1999.90;999.90;;;18.50;92.30;;;;;;5081208;28;20043;-78
2022/07/02 08:54:02;;;;;;;1999.90;999.90;;;18.60;96.60;;;;;;5070825;28;20032;-78
2022/07/02 08:56:31;;;;;;;1999.90;999.90;;;18.90;94.10;;;;;;5091355;28;20043;-78
2022/07/02 08:58:58;;;;;;;1999.90;999.90;;;19.20;93.90;;;;;;5087536;28;20055;-89
2022/07/02 09:01:25;;;;;;;1254.53;999.90;;;19.40;91.30;;;;;;5088736;28;20031;-79
2022/07/02 09:03:52;;;;;;;1999.90;999.90;;;19.30;88.00;;;;;;5077335;28;20016;-79
2022/07/02 09:06:25;;;;;;;1999.90;999.90;;;19.50;92.10;;;;;;5085441;28;20039;-78
2022/07/02 09:08:51;;;;;;;1396.78;999.90;;;19.70;90.20;;;;;;5070631;28;20127;-90
2022/07/02 09:11:17;;;;;;;1999.90;999.90;;;19.40;82.30;;;;;;5074344;28;20501;-89
2022/07/02 09:13:43;;;;;;;1999.90;999.90;;;19.60;91.40;;;;;;5086422;28;20522;-86
2022/07/02 09:16:09;;;;;;;1121.93;967.58;;;19.70;86.50;;;;;;5093307;28;20039;-83
2022/07/02 09:18:35;;;;;;;1589.88;999.90;;;19.90;76.90;;;;;;5088695;28;20107;-87
2022/07/02 09:21:00;;;;;;;1768.45;999.90;;;20.20;82.70;;;;;;5072806;28;20451;-84
2022/07/02 09:23:26;;;;;;;1896.35;999.90;;;20.40;84.60;;;;;;5069783;28;20078;-86
2022/07/02 09:25:51;;;;;;;1626.00;999.90;;;20.50;82.10;;;;;;5081261;28;20028;-85
2022/07/02 09:28:27;;;;;;;1848.22;999.90;;;20.60;81.20;;;;;;5077485;28;20036;-85
2022/07/02 09:31:03;;;;;;;1472.82;999.90;;;20.40;79.90;;;;;;5085771;28;20059;-84
2022/07/02 09:33:28;;;;;;;1843.57;999.90;;;20.50;74.80;;;;;;5085616;28;20031;-86
2022/07/02 09:35:55;;;;;;;1304.28;998.42;;;20.70;76.20;;;;;;5070371;28;20088;-86
2022/07/02 09:38:20;;;;;;;1597.82;999.90;;;20.70;75.90;;;;;;5075148;28;20100;-84
2022/07/02 09:40:54;;;;;;;1999.90;999.90;;;20.70;71.50;;;;;;5060693;28;20145;-84
2022/07/02 09:43:31;;;;;;;1510.80;999.90;;;21.20;78.40;;;;;;5087786;28;20143;-87
2022/07/02 09:45:59;;;;;;;1197.10;979.38;;;20.90;74.30;;;;;;5074618;28;20039;-86
2022/07/02 09:48:25;;;;;;;990.50;904.42;;;20.50;71.30;;;;;;5095187;28;20023;-84
2022/07/02 09:50:53;;;;;;;1992.97;999.90;;;20.40;67.70;;;;;;5075191;28;20032;-84
2022/07/02 09:53:19;;;;;;;1141.75;991.13;;;20.90;77.70;;;;;;5097125;28;20063;-87
2022/07/02 09:55:51;;;;;;;1094.47;980.33;;;21.30;71.20;;;;;;5090265;28;20752;-85
2022/07/02 09:58:28;;;;;;;1129.07;996.38;;;21.20;69.10;;;;;;5090799;28;20054;-86
2022/07/02 10:00:59;;;;;;;1035.95;942.03;;;21.50;69.70;;;;;;5094540;28;20092;-85
2022/07/02 10:03:27;;;;;;;965.55;876.95;;;21.60;65.20;;;;;;5076031;28;20016;-88
2022/07/02 10:05:53;;;;;;;1548.93;999.90;;;21.40;63.20;;;;;;5097610;28;20682;-87
2022/07/02 10:08:19;;;;;;;1403.05;999.90;;;21.60;66.90;;;;;;5079842;28;20036;-87
2022/07/02 10:10:45;;;;;;;1292.70;999.90;;;21.90;68.30;;;;;;5096341;28;20052;-84
2022/07/02 10:13:13;;;;;;;1341.40;999.90;;;22.00;66.10;;;;;;5072597;28;20028;-87
2022/07/02 10:15:59;;;;;;;1434.95;999.90;;;22.40;68.00;;;;;;5088114;28;20031;-88
2022/07/02 10:18:25;;;;;;;1029.25;913.85;;;21.60;69.40;;;;;;5105581;28;20027;-88
2022/07/02 10:20:54;;;;;;;1099.85;987.28;;;21.40;62.90;;;;;;5080200;28;20399;-90
2022/07/02 10:23:21;;;;;;;1661.10;999.90;;;21.50;68.10;;;;;;5078870;28;20024;-87
2022/07/02 10:25:48;;;;;;;1551.60;999.90;;;22.10;66.50;;;;;;5099318;28;20016;-90
2022/07/02 10:28:14;;;;;;;1202.20;999.90;;;22.00;66.40;;;;;;5096581;28;20067;-89
2022/07/02 10:30:40;;;;;;;1041.70;928.70;;;22.10;65.80;;;;;;5093798;28;20056;-88
2022/07/02 10:33:25;;;;;;;1018.80;924.45;;;22.20;63.10;;;;;;5074395;28;20622;-93
2022/07/02 10:35:51;;;;;;;999.67;906.47;;;22.30;60.30;;;;;;5092957;28;20134;-89
2022/07/02 10:38:31;;;;;;;1261.55;931.72;;;22.60;61.50;;;;;;5061293;28;20223;-89
2022/07/02 10:40:57;;;;;;;1191.05;989.03;;;22.70;62.80;;;;;;5095940;28;20827;-93
2022/07/02 10:43:23;;;;;;;1688.30;999.90;;;23.00;62.90;;;;;;5077200;28;20028;-90
2022/07/02 10:46:00;;;;;;;1057.15;950.63;;;22.90;64.40;;;;;;5093686;28;20017;-91
2022/07/02 10:48:25;;;;;;;1046.80;940.40;;;23.10;59.50;;;;;;5077326;28;20020;-93
2022/07/02 10:50:55;;;;;;;1047.43;949.95;;;23.00;61.20;;;;;;5081620;28;20556;-92
2022/07/02 10:53:24;;;;;;;1620.40;999.90;;;23.10;57.50;;;;;;5097279;28;20494;-91
2022/07/02 10:55:57;;;;;;;1212.90;984.72;;;23.50;57.60;;;;;;5098121;28;20032;-92
2022/07/02 10:58:25;;;;;;;868.90;799.17;;;23.50;56.40;;;;;;5078374;28;20032;-95
2022/07/02 11:00:51;;;;;;;1170.63;980.75;;;23.40;52.40;;;;;;5097737;28;20029;-91
2022/07/02 11:03:20;;;;;;;1087.82;968.78;;;23.40;58.10;;;;;;5090641;28;20047;-91
2022/07/02 11:05:58;;;;;;;1100.50;929.13;;;23.90;56.80;;;;;;5099063;28;20479;-91
2022/07/02 11:08:45;;;;;;;1006.83;900.22;;;24.30;53.50;;;;;;5098708;28;20025;-90
2022/07/02 11:11:17;;;;;;;1131.97;918.95;;;25.00;53.80;;;;;;5071781;28;20035;-91
2022/07/02 11:13:55;;;;;;;915.35;847.03;;;25.10;47.70;;;;;;5094472;28;20263;-90
2022/07/02 11:16:38;;;;;;;943.33;858.95;;;25.70;46.40;;;;;;5090683;28;20035;-91
2022/07/02 11:19:05;;;;;;;889.03;819.17;;;26.00;49.20;;;;;;5093134;28;20037;-95
2022/07/02 11:21:31;;;;;;;1019.03;869.28;;;25.50;46.90;;;;;;5098927;28;20086;-93
2022/07/02 11:23:59;;;;;;;937.33;861.17;;;25.50;45.10;;;;;;5071853;28;20028;-89
2022/07/02 11:26:28;;;;;;;978.13;894.58;;;25.70;48.50;;;;;;5074409;28;20035;-90
2022/07/02 11:29:00;;;;;;;857.10;791.70;;;25.90;45.50;;;;;;5091729;28;20032;-87
2022/07/02 11:31:27;;;;;;;1890.53;999.90;;;26.70;42.60;;;;;;5073734;28;20519;-88
2022/07/02 11:33:55;;;;;;;876.88;806.75;;;25.70;45.90;;;;;;5083097;28;20024;-85
2022/07/02 11:36:22;;;;;;;1316.32;987.83;;;26.00;43.00;;;;;;5089528;28;20040;-88
2022/07/02 11:38:50;;;;;;;991.92;892.97;;;26.20;46.90;;;;;;5088164;28;20545;-88
2022/07/02 11:41:22;;;;;;;1000.63;907.83;;;26.40;44.50;;;;;;5069608;28;20035;-88
2022/07/02 11:43:51;;;;;;;832.65;772.25;;;26.60;44.00;;;;;;5073351;28;20078;-85
2022/07/02 11:46:20;;;;;;;1078.63;921.13;;;27.30;38.30;;;;;;5085656;28;20142;-86
2022/07/02 11:48:46;;;;;;;810.35;747.22;;;27.50;41.90;;;;;;5067761;28;20131;-91
2022/07/02 11:51:12;;;;;;;887.60;816.72;;;27.00;37.80;;;;;;5056764;28;20027;-86
2022/07/02 11:53:38;;;;;;;1046.18;911.17;;;27.50;42.20;;;;;;5092300;28;20494;-87
2022/07/02 11:56:05;;;;;;;955.67;867.92;;;27.40;42.20;;;;;;5094824;28;20035;-89
2022/07/02 11:58:41;;;;;;;853.15;781.78;;;27.50;38.20;;;;;;5062841;28;20028;-90
2022/07/02 12:01:28;;;;;;;930.00;852.60;;;28.20;38.70;;;;;;5081144;28;20024;-93
2022/07/02 12:04:02;;;;;;;896.58;821.90;;;28.10;38.50;;;;;;5092187;28;20031;-89
2022/07/02 12:06:29;;;;;;;817.15;754.85;;;28.00;37.30;;;;;;5087676;28;20024;-85